createdAt,value
2023-02-21T00:01:13.524Z,13.07
2023-02-21T00:03:59.787Z,13.00
2023-02-21T00:06:45.967Z,14.73
2023-02-21T00:09:32.224Z,11.93
2023-02-21T00:12:18.436Z,10.63
2023-02-21T00:15:04.703Z,13.37
2023-02-21T00:17:50.872Z,12.93
2023-02-21T00:20:37.512Z,11.23
2023-02-21T00:23:23.726Z,11.63
2023-02-21T00:26:09.820Z,9.73
2023-02-21T00:28:56.034Z,10.27
2023-02-21T00:31:42.284Z,9.83
2023-02-21T00:34:28.495Z,9.17
2023-02-21T00:37:14.566Z,11.00
2023-02-21T00:40:00.914Z,10.47
2023-02-21T00:42:47.034Z,11.07
2023-02-21T00:45:33.400Z,10.23
2023-02-21T00:48:19.734Z,10.53
2023-02-21T00:51:06.360Z,11.47
2023-02-21T00:53:52.511Z,9.37
2023-02-21T00:56:39.060Z,10.60
2023-02-21T00:59:25.309Z,9.80
2023-02-21T01:02:11.590Z,10.37
2023-02-21T01:04:57.845Z,9.57
2023-02-21T01:07:44.100Z,9.67
2023-02-21T01:10:30.226Z,10.77
2023-02-21T01:13:16.439Z,11.60
2023-02-21T01:16:03.597Z,10.20
2023-02-21T01:18:49.889Z,10.50
2023-02-21T01:21:37.978Z,10.23
2023-02-21T01:24:27.557Z,11.73
2023-02-21T01:27:13.611Z,8.37
2023-02-21T01:29:59.847Z,12.80
2023-02-21T01:32:45.984Z,11.87
2023-02-21T01:35:32.319Z,9.90
2023-02-21T01:38:18.946Z,12.30
2023-02-21T01:41:08.361Z,11.23
2023-02-21T01:43:54.745Z,10.27
2023-02-21T01:46:41.030Z,12.57
2023-02-21T01:49:35.872Z,11.90
2023-02-21T01:52:24.370Z,12.97
2023-02-21T01:55:14.027Z,10.03
2023-02-21T01:58:04.694Z,11.53
2023-02-21T02:00:54.597Z,12.07
2023-02-21T02:03:40.809Z,9.70
2023-02-21T02:06:33.083Z,10.47
2023-02-21T02:09:36.267Z,11.90
2023-02-21T02:12:34.892Z,10.68
2023-02-21T02:15:18.674Z,10.93
2023-02-21T02:18:06.352Z,11.57
2023-02-21T02:20:49.026Z,11.87
2023-02-21T02:23:52.924Z,11.87
2023-02-21T02:27:04.512Z,11.23
2023-02-21T02:30:22.187Z,12.33
2023-02-21T02:33:31.841Z,12.63
2023-02-21T02:36:44.412Z,12.20
2023-02-21T02:39:44.306Z,11.60
2023-02-21T02:42:38.833Z,12.63
2023-02-21T02:45:20.906Z,12.00
2023-02-21T02:47:57.164Z,12.93
2023-02-21T02:50:27.799Z,10.50
2023-02-21T02:53:01.389Z,12.37
2023-02-21T02:55:55.762Z,12.43
2023-02-21T02:58:29.464Z,12.47
2023-02-21T03:01:35.848Z,13.10
2023-02-21T03:05:06.701Z,11.65
2023-02-21T03:08:38.988Z,14.40
2023-02-21T03:11:22.889Z,14.40
2023-02-21T03:13:57.920Z,14.15
2023-02-21T03:16:50.634Z,14.43
2023-02-21T03:19:25.264Z,13.57
2023-02-21T03:21:59.757Z,15.20
2023-02-21T03:24:28.355Z,13.40
2023-02-21T03:27:02.282Z,13.15
2023-02-21T03:29:56.309Z,14.00
2023-02-21T03:32:36.200Z,14.67
2023-02-21T03:35:06.114Z,15.10
2023-02-21T03:37:40.638Z,14.07
2023-02-21T03:40:25.850Z,13.85
2023-02-21T03:42:56.432Z,13.43
2023-02-21T03:45:25.296Z,15.90
2023-02-21T03:48:30.939Z,15.20
2023-02-21T03:51:05.392Z,14.98
2023-02-21T03:53:37.518Z,13.95
2023-02-21T03:56:06.956Z,15.43
2023-02-21T03:58:56.910Z,14.70
2023-02-21T04:01:24.798Z,15.97
2023-02-21T04:03:54.381Z,15.13
2023-02-21T04:06:22.825Z,15.38
2023-02-21T04:08:52.222Z,13.02
2023-02-21T04:11:22.256Z,16.17
2023-02-21T04:13:52.885Z,14.02
2023-02-21T04:16:20.627Z,15.43
2023-02-21T04:18:51.072Z,13.35
2023-02-21T04:21:20.076Z,13.57
2023-02-21T04:23:49.233Z,14.33
2023-02-21T04:26:20.892Z,14.80
2023-02-21T04:28:52.989Z,12.70
2023-02-21T04:31:21.207Z,11.55
2023-02-21T04:33:54.921Z,13.27
2023-02-21T04:36:30.810Z,14.73
2023-02-21T04:38:58.604Z,10.47
2023-02-21T04:41:26.326Z,13.15
2023-02-21T04:43:54.114Z,12.15
2023-02-21T04:46:21.998Z,12.52
2023-02-21T04:48:52.707Z,11.60
2023-02-21T04:51:24.456Z,13.55
2023-02-21T04:54:39.858Z,10.25
2023-02-21T04:57:07.539Z,12.90
2023-02-21T04:59:35.094Z,12.20
2023-02-21T05:02:03.075Z,13.55
2023-02-21T05:04:30.711Z,12.25
2023-02-21T05:07:01.843Z,13.13
2023-02-21T05:09:29.549Z,13.15
2023-02-21T05:11:57.358Z,12.65
2023-02-21T05:14:25.031Z,12.70
2023-02-21T05:16:52.733Z,14.95
2023-02-21T05:20:47.075Z,13.63
2023-02-21T05:23:17.086Z,14.63
2023-02-21T05:25:45.445Z,10.73
2023-02-21T05:28:13.249Z,13.75
2023-02-21T05:30:41.664Z,12.50
2023-02-21T05:33:11.429Z,12.52
2023-02-21T05:35:39.144Z,12.15
2023-02-21T05:38:06.748Z,11.43
2023-02-21T05:40:34.667Z,9.40
2023-02-21T05:43:02.309Z,11.65
2023-02-21T05:45:30.074Z,9.57
2023-02-21T05:48:00.296Z,10.43
2023-02-21T05:50:29.624Z,9.77
2023-02-21T05:52:59.372Z,10.60
2023-02-21T05:55:27.455Z,11.05
2023-02-21T05:57:55.687Z,11.13
2023-02-21T06:00:28.665Z,10.68
2023-02-21T06:02:57.138Z,9.50
2023-02-21T06:05:25.409Z,10.95
2023-02-21T06:07:53.943Z,11.67
2023-02-21T06:10:21.571Z,9.82
2023-02-21T06:12:49.197Z,10.88
2023-02-21T06:15:16.871Z,9.43
2023-02-21T06:17:45.025Z,11.80
2023-02-21T06:20:16.703Z,8.37
2023-02-21T06:22:44.609Z,11.10
2023-02-21T06:25:12.272Z,12.25
2023-02-21T06:27:39.995Z,13.00
2023-02-21T06:30:08.713Z,11.90
2023-02-21T06:32:36.499Z,11.00
2023-02-21T06:35:04.768Z,10.37
2023-02-21T06:37:32.548Z,12.43
2023-02-21T06:40:00.490Z,13.17
2023-02-21T06:42:29.895Z,12.87
2023-02-21T06:44:57.523Z,12.33
2023-02-21T06:47:25.147Z,13.93
2023-02-21T06:49:52.875Z,13.33
2023-02-21T06:52:21.608Z,14.17
2023-02-21T06:54:52.561Z,15.67
2023-02-21T06:57:20.362Z,13.83
2023-02-21T06:59:47.967Z,14.67
2023-02-21T07:02:19.235Z,15.03
2023-02-21T07:04:49.819Z,15.70
2023-02-21T07:07:28.017Z,15.20
2023-02-21T07:10:06.553Z,16.43
2023-02-21T07:12:40.008Z,18.03
2023-02-21T07:15:13.197Z,13.87
2023-02-21T07:17:41.815Z,14.23
2023-02-21T07:20:13.592Z,17.13
2023-02-21T07:22:41.224Z,18.03
2023-02-21T07:25:08.831Z,14.10
2023-02-21T07:27:38.740Z,14.33
2023-02-21T07:30:07.735Z,15.60
2023-02-21T07:32:35.346Z,12.53
2023-02-21T07:35:04.198Z,14.30
2023-02-21T07:37:32.122Z,12.53
2023-02-21T07:40:00.060Z,16.40
2023-02-21T07:42:27.909Z,15.80
2023-02-21T07:44:59.041Z,14.03
2023-02-21T07:47:27.742Z,13.67
2023-02-21T07:49:55.481Z,13.07
2023-02-21T07:52:23.457Z,12.60
2023-02-21T07:54:51.178Z,13.30
2023-02-21T07:57:19.324Z,14.50
2023-02-21T07:59:50.643Z,14.53
2023-02-21T08:02:39.921Z,14.67
2023-02-21T08:05:09.145Z,14.77
2023-02-21T08:07:36.916Z,15.30
2023-02-21T08:10:05.005Z,13.03
2023-02-21T08:12:32.820Z,14.67
2023-02-21T08:15:00.443Z,13.23
2023-02-21T08:17:28.229Z,14.07
2023-02-21T08:19:55.874Z,15.83
2023-02-21T08:22:23.585Z,14.77
2023-02-21T08:24:51.472Z,13.10
2023-02-21T08:27:19.142Z,13.93
2023-02-21T08:29:51.193Z,14.07
2023-02-21T08:32:19.903Z,14.80
2023-02-21T08:34:51.697Z,13.77
2023-02-21T08:37:22.245Z,14.17
2023-02-21T08:39:57.452Z,13.87
2023-02-21T08:42:31.536Z,11.57
2023-02-21T08:44:59.376Z,12.55
2023-02-21T08:47:27.178Z,11.98
2023-02-21T08:49:55.037Z,11.15
2023-02-21T08:52:22.728Z,14.33
2023-02-21T08:54:50.387Z,12.80
2023-02-21T09:00:39.357Z,13.47
2023-02-21T09:03:08.044Z,12.13
2023-02-21T09:05:37.001Z,9.63
2023-02-21T09:08:05.340Z,10.70
2023-02-21T09:10:38.160Z,9.53
2023-02-21T09:13:09.001Z,11.35
2023-02-21T09:15:36.732Z,11.07
2023-02-21T09:18:04.756Z,10.73
2023-02-21T09:20:32.878Z,9.50
2023-02-21T09:23:00.822Z,8.55
2023-02-21T09:25:29.102Z,9.77
2023-02-21T09:28:00.537Z,9.85
2023-02-21T09:30:29.719Z,8.38
2023-02-21T09:32:58.481Z,7.13
2023-02-21T09:35:29.484Z,7.45
2023-02-21T09:38:03.809Z,7.53
2023-02-21T09:41:03.788Z,6.72
2023-02-21T09:43:39.449Z,5.63
2023-02-21T09:46:14.807Z,4.43
2023-02-21T09:48:44.064Z,2.50
2023-02-21T09:51:14.607Z,1.00
2023-02-21T09:53:46.267Z,0.53
2023-02-21T09:56:21.636Z,0.90
2023-02-21T09:58:49.994Z,0.70
2023-02-21T10:01:56.568Z,0.77
2023-02-21T10:04:33.464Z,0.73
2023-02-21T10:07:10.674Z,0.70
2023-02-21T10:09:52.321Z,1.10
2023-02-21T10:12:45.067Z,0.40
2023-02-21T10:15:44.046Z,0.67
2023-02-21T10:19:23.077Z,0.70
2023-02-21T10:22:08.486Z,0.23
2023-02-21T10:24:53.125Z,0.60
2023-02-21T10:27:36.970Z,0.43
2023-02-21T10:30:11.921Z,0.70
2023-02-21T10:32:40.627Z,0.77
2023-02-21T10:35:12.113Z,0.60
2023-02-21T10:37:51.387Z,0.70
2023-02-21T10:40:38.003Z,0.30
2023-02-21T10:43:17.926Z,0.40
2023-02-21T10:45:58.422Z,0.40
2023-02-21T10:48:43.124Z,0.73
2023-02-21T10:51:15.475Z,0.50
2023-02-21T10:53:47.466Z,0.37
2023-02-21T10:56:15.342Z,0.50
2023-02-21T10:59:06.725Z,0.57
2023-02-21T11:01:45.706Z,0.60
2023-02-21T11:04:28.512Z,0.47
2023-02-21T11:07:11.712Z,0.57
2023-02-21T11:09:42.534Z,0.60
2023-02-21T11:12:16.900Z,0.57
2023-02-21T11:15:15.674Z,0.73
2023-02-21T11:17:45.694Z,0.40
2023-02-21T11:20:23.490Z,0.70
2023-02-21T11:22:51.713Z,0.37
2023-02-21T11:25:32.938Z,0.50
2023-02-21T11:28:13.021Z,0.40
2023-02-21T11:31:15.417Z,0.43
2023-02-21T11:34:00.334Z,0.40
2023-02-21T11:36:38.923Z,0.57
2023-02-21T11:39:18.719Z,0.40
2023-02-21T11:41:57.009Z,0.73
2023-02-21T11:44:42.380Z,0.40
2023-02-21T11:47:29.114Z,0.45
2023-02-21T11:50:25.386Z,0.57
2023-02-21T11:53:00.142Z,0.30
2023-02-21T11:55:28.419Z,0.60
2023-02-21T11:58:26.454Z,0.60
2023-02-21T12:01:07.454Z,0.82
2023-02-21T12:04:06.111Z,0.85
2023-02-21T12:07:17.073Z,0.65
2023-02-21T12:10:38.648Z,0.77
2023-02-21T12:14:01.350Z,0.40
2023-02-21T12:17:15.066Z,0.50
2023-02-21T12:20:00.832Z,0.40
2023-02-21T12:23:23.891Z,0.60
2023-02-21T12:26:32.646Z,0.43
2023-02-21T12:29:52.513Z,0.60
2023-02-21T12:33:03.570Z,0.55
2023-02-21T12:36:17.447Z,0.68
2023-02-21T12:39:02.048Z,0.40
2023-02-21T12:41:58.688Z,0.60
2023-02-21T12:45:22.618Z,0.40
2023-02-21T12:48:27.441Z,0.40
2023-02-21T12:51:25.330Z,0.50
2023-02-21T12:54:07.523Z,0.45
2023-02-21T12:56:53.190Z,0.57
2023-02-21T12:59:55.484Z,0.50
2023-02-21T13:02:46.282Z,0.50
2023-02-21T13:05:26.102Z,0.70
2023-02-21T13:08:14.991Z,0.30
2023-02-21T13:11:00.772Z,0.47
2023-02-21T13:13:35.662Z,0.40
2023-02-21T13:16:18.157Z,0.75
2023-02-21T13:19:02.333Z,0.57
2023-02-21T13:22:46.321Z,0.50
2023-02-21T13:26:16.216Z,0.60
2023-02-21T13:28:45.890Z,0.40
2023-02-21T13:31:39.227Z,0.40
2023-02-21T13:34:19.071Z,0.30
2023-02-21T13:36:49.601Z,0.55
2023-02-21T13:39:32.366Z,0.30
2023-02-21T13:42:16.882Z,0.30
2023-02-21T13:45:20.455Z,0.38
2023-02-21T13:48:01.897Z,0.50
2023-02-21T13:50:39.303Z,0.63
2023-02-21T13:53:33.827Z,0.30
2023-02-21T13:56:07.734Z,0.60
2023-02-21T13:58:38.088Z,0.30
2023-02-21T14:01:44.310Z,0.45
2023-02-21T14:05:09.619Z,0.50
2023-02-21T14:07:47.839Z,0.60
2023-02-21T14:10:44.271Z,0.38
2023-02-21T14:13:52.100Z,0.20
2023-02-21T14:16:36.979Z,0.38
2023-02-21T14:19:22.420Z,0.40
2023-02-21T14:22:03.252Z,0.30
2023-02-21T14:24:38.190Z,0.30
2023-02-21T14:27:37.023Z,0.85
2023-02-21T14:30:11.152Z,0.50
2023-02-21T14:32:44.243Z,0.45
2023-02-21T14:35:24.404Z,0.40
2023-02-21T14:38:03.340Z,0.30
2023-02-21T14:41:05.322Z,0.40
2023-02-21T14:44:01.506Z,0.43
2023-02-21T14:47:12.972Z,0.35
2023-02-21T14:50:21.405Z,0.20
2023-02-21T14:53:36.442Z,0.40
2023-02-21T14:56:16.352Z,0.80
2023-02-21T14:59:25.112Z,0.57
2023-02-21T15:03:03.386Z,0.60
2023-02-21T15:05:42.408Z,0.40
2023-02-21T15:08:22.117Z,0.63
2023-02-21T15:10:56.609Z,0.55
2023-02-21T15:13:34.649Z,0.47
2023-02-21T15:16:12.125Z,0.50
2023-02-21T15:19:04.144Z,0.70
2023-02-21T15:21:51.388Z,0.65
2023-02-21T15:24:20.441Z,0.55
2023-02-21T15:27:13.724Z,0.60
2023-02-21T15:29:41.592Z,0.77
2023-02-21T15:32:30.092Z,0.63
2023-02-21T15:34:58.533Z,0.90
2023-02-21T15:37:39.804Z,0.90
2023-02-21T15:40:25.349Z,0.80
2023-02-21T15:42:56.488Z,0.90
2023-02-21T15:45:32.053Z,0.65
2023-02-21T15:48:01.106Z,0.80
2023-02-21T15:50:45.288Z,0.90
2023-02-21T15:53:22.319Z,0.98
2023-02-21T15:55:52.662Z,1.00
2023-02-21T15:58:27.585Z,0.77
2023-02-21T16:01:11.752Z,0.60
2023-02-21T16:03:46.951Z,0.60
2023-02-21T16:06:25.412Z,0.75
2023-02-21T16:09:04.359Z,1.08
2023-02-21T16:12:04.972Z,1.20
2023-02-21T16:15:05.829Z,1.15
2023-02-21T16:17:37.732Z,1.30
2023-02-21T16:20:19.260Z,1.33
2023-02-21T16:23:07.191Z,1.50
2023-02-21T16:25:35.829Z,0.80
2023-02-21T16:28:13.068Z,1.13
2023-02-21T16:30:41.217Z,0.52
2023-02-21T16:33:13.959Z,0.80
2023-02-21T16:35:42.801Z,0.65
2023-02-21T16:38:18.273Z,0.40
2023-02-21T16:40:49.994Z,0.40
2023-02-21T16:43:24.596Z,0.68
2023-02-21T16:45:57.890Z,0.43
2023-02-21T16:48:33.475Z,0.40
2023-02-21T16:51:14.025Z,0.73
2023-02-21T16:53:42.128Z,0.40
2023-02-21T16:56:09.851Z,0.43
2023-02-21T16:58:48.680Z,0.40
2023-02-21T17:01:33.538Z,0.63
2023-02-21T17:04:05.803Z,0.50
2023-02-21T17:06:34.546Z,0.82
2023-02-21T17:09:02.394Z,1.10
2023-02-21T17:11:32.090Z,0.70
2023-02-21T17:14:00.109Z,0.60
2023-02-21T17:16:30.106Z,0.70
2023-02-21T17:18:57.738Z,1.15
2023-02-21T17:21:25.345Z,1.00
2023-02-21T17:23:54.331Z,1.03
2023-02-21T17:26:22.181Z,0.80
2023-02-21T17:28:50.766Z,0.90
2023-02-21T17:31:19.302Z,1.40
2023-02-21T17:33:47.132Z,0.93
2023-02-21T17:44:00.769Z,0.98
2023-02-21T17:46:43.727Z,0.90
2023-02-21T17:49:20.823Z,0.82
2023-02-21T17:52:45.785Z,0.98
2023-02-21T17:55:26.497Z,0.88
2023-02-21T17:57:54.445Z,1.13
2023-02-21T18:00:28.434Z,1.20
2023-02-21T18:03:15.047Z,1.00
2023-02-21T18:05:42.967Z,1.10
2023-02-21T18:08:10.624Z,1.27
2023-02-21T18:10:48.278Z,1.25
2023-02-21T18:17:36.505Z,0.68
2023-02-21T18:20:25.098Z,1.40
2023-02-21T18:23:39.556Z,1.07
2023-02-21T18:26:59.601Z,0.68
2023-02-21T18:30:55.062Z,0.63
2023-02-21T18:33:27.028Z,0.75
2023-02-21T18:35:56.982Z,1.05
2023-02-21T18:38:25.972Z,0.70
2023-02-21T18:40:56.653Z,0.80
2023-02-21T18:43:36.620Z,1.00
2023-02-21T18:47:08.323Z,1.13
2023-02-21T18:50:03.727Z,1.13
2023-02-21T18:52:38.995Z,1.20
2023-02-21T18:55:27.921Z,1.13
2023-02-21T18:58:02.934Z,1.38
2023-02-21T19:00:33.832Z,1.23
2023-02-21T19:03:12.233Z,1.10
2023-02-21T19:06:03.918Z,1.93
2023-02-21T19:08:36.585Z,1.30
2023-02-21T19:11:10.745Z,1.20
2023-02-21T19:13:49.637Z,1.23
2023-02-21T19:16:27.775Z,1.50
2023-02-21T19:19:00.133Z,1.33
2023-02-21T19:21:29.261Z,1.60
2023-02-21T19:23:57.817Z,1.55
2023-02-21T19:26:30.224Z,1.40
2023-02-21T19:29:40.965Z,1.60
2023-02-21T19:32:24.738Z,1.60
2023-02-21T19:34:54.570Z,2.00
2023-02-21T19:37:28.673Z,2.20
2023-02-21T19:40:24.868Z,1.80
2023-02-21T19:42:58.949Z,1.80
2023-02-21T19:45:35.624Z,1.93
2023-02-21T19:48:03.806Z,2.45
2023-02-21T19:50:34.230Z,2.55
2023-02-21T19:53:06.146Z,2.22
2023-02-21T19:55:34.934Z,2.17
2023-02-21T19:58:07.018Z,2.17
2023-02-21T20:00:41.227Z,2.03
2023-02-21T20:03:20.190Z,2.20
2023-02-21T20:05:49.075Z,2.50
2023-02-21T20:08:16.882Z,2.50
2023-02-21T20:10:44.452Z,2.50
2023-02-21T20:13:18.279Z,2.50
2023-02-21T20:15:58.122Z,3.00
2023-02-21T20:19:00.722Z,2.85
2023-02-21T20:21:31.454Z,2.65
2023-02-21T20:24:00.126Z,2.80
2023-02-21T20:26:31.059Z,2.67
2023-02-21T20:29:01.192Z,2.97
2023-02-21T20:31:39.526Z,2.95
2023-02-21T20:34:30.898Z,3.65
2023-02-21T20:37:01.989Z,3.73
2023-02-21T20:39:49.855Z,4.18
2023-02-21T20:42:22.748Z,4.38
2023-02-21T20:44:53.450Z,3.85
2023-02-21T20:47:23.603Z,3.70
2023-02-21T20:49:51.639Z,3.47
2023-02-21T20:52:19.165Z,3.58
2023-02-21T20:54:50.585Z,4.45
2023-02-21T20:57:26.936Z,3.50
2023-02-21T20:59:55.329Z,3.05
2023-02-21T21:02:24.520Z,3.25
2023-02-21T21:04:54.424Z,5.15
2023-02-21T21:07:24.390Z,3.40
2023-02-21T21:09:54.457Z,3.90
2023-02-21T21:12:26.349Z,3.60
2023-02-21T21:14:59.099Z,4.20
2023-02-21T21:17:31.891Z,3.90
2023-02-21T21:20:17.576Z,3.63
2023-02-21T21:22:48.483Z,4.05
2023-02-21T21:25:17.259Z,4.00
2023-02-21T21:27:45.253Z,4.30
2023-02-21T21:30:18.343Z,3.90
2023-02-21T21:32:46.526Z,4.05
2023-02-21T21:35:17.149Z,3.77
2023-02-21T21:37:44.914Z,3.73
2023-02-21T21:40:16.567Z,4.40
2023-02-21T21:42:49.732Z,5.00
2023-02-21T21:45:25.620Z,4.40
2023-02-21T21:47:59.638Z,4.72
2023-02-21T21:50:30.830Z,4.18
2023-02-21T21:52:59.060Z,3.80
2023-02-21T21:55:29.939Z,4.47
2023-02-21T21:57:58.867Z,4.35
2023-02-21T22:00:29.898Z,4.60
2023-02-21T22:03:01.819Z,4.60
2023-02-21T22:05:31.685Z,4.22
2023-02-21T22:07:59.592Z,4.28
2023-02-21T22:10:28.598Z,3.72
2023-02-21T22:13:00.603Z,4.05
2023-02-21T22:18:51.032Z,5.57
2023-02-21T22:21:23.441Z,4.78
2023-02-21T22:23:56.199Z,5.05
2023-02-21T22:26:25.642Z,5.50
2023-02-21T22:28:54.022Z,6.88
2023-02-21T22:31:27.432Z,8.02
2023-02-21T22:33:59.126Z,7.80
2023-02-21T22:36:31.617Z,8.35
2023-02-21T22:39:09.264Z,7.60
2023-02-21T22:41:37.501Z,7.07
2023-02-21T22:44:05.040Z,6.65
2023-02-21T22:46:49.041Z,6.03
2023-02-21T22:49:16.817Z,5.63
2023-02-21T22:51:44.898Z,5.55
2023-02-21T22:54:14.237Z,5.63
2023-02-21T22:56:51.154Z,6.35
2023-02-21T22:59:24.164Z,5.68
2023-02-21T23:01:54.397Z,5.80
2023-02-21T23:04:28.170Z,5.88
2023-02-21T23:07:00.439Z,6.90
2023-02-21T23:09:30.381Z,5.70
2023-02-21T23:12:00.553Z,5.93
2023-02-21T23:14:31.479Z,5.40
2023-02-21T23:16:59.587Z,4.82
2023-02-21T23:19:29.351Z,5.25
2023-02-21T23:21:57.879Z,5.75
2023-02-21T23:24:26.066Z,5.00
2023-02-21T23:26:54.637Z,5.72
2023-02-21T23:29:26.052Z,5.28
2023-02-21T23:32:09.515Z,6.78
2023-02-21T23:34:41.056Z,6.38
2023-02-21T23:37:12.393Z,9.50
2023-02-21T23:39:41.965Z,8.05
2023-02-21T23:42:11.143Z,6.35
2023-02-21T23:44:39.326Z,5.63
2023-02-21T23:47:07.059Z,5.68
2023-02-21T23:49:34.795Z,4.47
2023-02-21T23:52:02.629Z,4.57
2023-02-21T23:54:30.384Z,4.38
2023-02-21T23:57:00.536Z,4.75
2023-02-21T23:59:29.000Z,4.85
